createdAt,value
2017-08-23T00:01:29.451Z,95.90
2017-08-23T00:03:57.720Z,95.90
2017-08-23T00:06:25.203Z,95.80
2017-08-23T00:08:52.689Z,96.00
2017-08-23T00:11:20.182Z,96.10
2017-08-23T00:13:47.670Z,96.20
2017-08-23T00:16:15.159Z,96.30
2017-08-23T00:18:42.726Z,96.50
2017-08-23T00:21:10.225Z,96.40
2017-08-23T00:23:37.700Z,96.50
2017-08-23T00:26:05.175Z,96.60
2017-08-23T00:28:32.668Z,96.70
2017-08-23T00:31:00.158Z,96.80
2017-08-23T00:33:27.621Z,97.00
2017-08-23T00:35:56.258Z,97.00
2017-08-23T00:38:23.743Z,96.90
2017-08-23T00:40:51.210Z,97.00
2017-08-23T00:43:18.977Z,97.00
2017-08-23T00:45:46.550Z,97.20
2017-08-23T00:48:14.050Z,97.20
2017-08-23T00:50:41.526Z,97.10
2017-08-23T00:53:09.001Z,97.10
2017-08-23T00:55:36.480Z,96.90
2017-08-23T00:58:03.977Z,96.80
2017-08-23T01:00:31.451Z,96.80
2017-08-23T01:02:58.959Z,96.80
2017-08-23T01:05:26.437Z,97.10
2017-08-23T01:07:53.933Z,97.20
2017-08-23T01:10:21.412Z,97.10
2017-08-23T01:12:50.001Z,97.20
2017-08-23T01:15:17.493Z,97.20
2017-08-23T01:17:44.979Z,97.40
2017-08-23T01:20:12.466Z,97.40
2017-08-23T01:22:39.973Z,97.60
2017-08-23T01:25:07.454Z,97.50
2017-08-23T01:27:34.935Z,97.50
2017-08-23T01:30:02.420Z,97.50
2017-08-23T01:32:30.245Z,97.50
2017-08-23T01:34:59.059Z,97.60
2017-08-23T01:37:26.538Z,97.60
2017-08-23T01:39:54.029Z,97.70
2017-08-23T01:42:21.514Z,97.60
2017-08-23T01:44:49.013Z,97.60
2017-08-23T01:47:16.490Z,97.60
2017-08-23T01:49:43.989Z,97.70
2017-08-23T01:52:11.468Z,97.80
2017-08-23T01:54:38.967Z,97.90
2017-08-23T01:57:06.502Z,97.80
2017-08-23T01:59:33.998Z,97.90
2017-08-23T02:02:01.471Z,97.90
2017-08-23T02:04:28.971Z,98.00
2017-08-23T02:06:56.441Z,98.20
2017-08-23T02:09:24.693Z,98.50
2017-08-23T02:11:52.179Z,98.40
2017-08-23T02:14:20.472Z,98.20
2017-08-23T02:16:47.941Z,98.20
2017-08-23T02:19:22.563Z,98.40
2017-08-23T02:21:50.041Z,98.40
2017-08-23T02:24:17.544Z,98.60
2017-08-23T02:26:45.797Z,98.70
2017-08-23T02:29:13.291Z,98.70
2017-08-23T02:31:54.220Z,98.50
2017-08-23T02:34:21.718Z,98.70
2017-08-23T02:36:49.973Z,99.10
2017-08-23T02:39:17.467Z,99.10
2017-08-23T02:41:44.941Z,99.10
2017-08-23T02:44:12.443Z,99.20
2017-08-23T02:46:39.930Z,99.20
2017-08-23T02:49:07.423Z,99.00
2017-08-23T02:51:34.911Z,99.10
2017-08-23T02:54:02.410Z,99.10
2017-08-23T02:56:29.894Z,99.10
2017-08-23T02:58:57.354Z,99.00
2017-08-23T03:01:24.841Z,99.10
2017-08-23T03:03:52.318Z,99.20
2017-08-23T03:06:19.820Z,99.20
2017-08-23T03:08:48.062Z,99.40
2017-08-23T03:11:15.542Z,99.30
2017-08-23T03:13:44.125Z,99.30
2017-08-23T03:16:11.618Z,99.20
2017-08-23T03:18:39.104Z,99.30
2017-08-23T03:21:06.593Z,99.80
2017-08-23T03:23:34.090Z,99.60
2017-08-23T03:26:01.594Z,99.60
2017-08-23T03:28:29.075Z,99.60
2017-08-23T03:30:56.558Z,99.70
2017-08-23T03:33:24.017Z,99.80
2017-08-23T03:35:51.508Z,99.80
2017-08-23T03:38:18.986Z,99.80
2017-08-23T03:40:46.466Z,99.90
2017-08-23T03:43:13.946Z,99.90
2017-08-23T03:45:41.432Z,99.90
2017-08-23T03:48:08.924Z,99.90
2017-08-23T03:50:36.470Z,99.90
2017-08-23T03:53:03.964Z,99.90
2017-08-23T03:55:31.443Z,99.90
2017-08-23T03:57:59.079Z,99.90
2017-08-23T04:00:26.559Z,99.90
2017-08-23T04:02:54.056Z,99.90
2017-08-23T04:05:21.818Z,99.90
2017-08-23T04:07:49.308Z,99.90
2017-08-23T04:10:16.786Z,99.90
2017-08-23T04:12:44.306Z,99.90
2017-08-23T04:15:11.779Z,99.90
2017-08-23T04:17:39.264Z,99.90
2017-08-23T04:20:06.739Z,99.90
2017-08-23T04:22:34.231Z,99.90
2017-08-23T04:25:01.710Z,99.90
2017-08-23T04:27:29.197Z,99.90
2017-08-23T04:29:56.699Z,99.90
2017-08-23T04:32:24.186Z,99.90
2017-08-23T04:34:51.665Z,99.90
2017-08-23T04:37:19.160Z,99.90
2017-08-23T04:39:46.625Z,99.90
2017-08-23T04:42:14.145Z,99.90
2017-08-23T04:44:41.618Z,99.90
2017-08-23T04:47:09.104Z,99.90
2017-08-23T04:49:36.605Z,99.90
2017-08-23T04:52:04.081Z,99.90
2017-08-23T04:54:31.566Z,99.90
2017-08-23T04:56:59.042Z,99.90
2017-08-23T04:59:26.546Z,99.90
2017-08-23T05:01:54.037Z,99.90
2017-08-23T05:04:21.551Z,99.90
2017-08-23T05:06:49.039Z,99.90
2017-08-23T05:09:16.536Z,99.90
2017-08-23T05:11:44.086Z,99.90
2017-08-23T05:14:12.345Z,99.90
2017-08-23T05:16:40.918Z,99.90
2017-08-23T05:19:08.403Z,99.90
2017-08-23T05:21:35.886Z,99.90
2017-08-23T05:24:03.382Z,99.90
2017-08-23T05:26:30.861Z,99.90
2017-08-23T05:28:58.337Z,99.90
2017-08-23T05:31:25.825Z,99.90
2017-08-23T05:33:53.311Z,99.90
2017-08-23T05:36:20.799Z,99.90
2017-08-23T05:38:49.037Z,99.90
2017-08-23T05:41:16.537Z,99.90
2017-08-23T05:43:44.016Z,99.90
2017-08-23T05:46:11.519Z,99.90
2017-08-23T05:48:39.014Z,99.90
2017-08-23T05:51:07.292Z,99.90
2017-08-23T05:53:34.783Z,99.90
2017-08-23T05:56:02.275Z,99.90
2017-08-23T05:58:29.746Z,99.90
2017-08-23T06:00:58.157Z,99.90
2017-08-23T06:03:26.396Z,99.90
2017-08-23T06:05:53.884Z,99.90
2017-08-23T06:08:22.153Z,99.90
2017-08-23T06:10:49.655Z,99.90
2017-08-23T06:13:17.123Z,99.90
2017-08-23T06:15:44.770Z,99.90
2017-08-23T06:18:12.249Z,99.90
2017-08-23T06:20:39.738Z,99.90
2017-08-23T06:23:08.917Z,99.90
2017-08-23T06:25:36.417Z,99.90
2017-08-23T06:28:05.409Z,99.90
2017-08-23T06:30:33.673Z,99.90
2017-08-23T06:33:01.153Z,99.90
2017-08-23T06:35:28.661Z,99.90
2017-08-23T06:37:56.150Z,99.90
2017-08-23T06:40:23.740Z,99.80
2017-08-23T06:42:51.217Z,99.60
2017-08-23T06:45:18.722Z,99.50
2017-08-23T06:47:46.192Z,98.80
2017-08-23T06:50:14.465Z,98.30
2017-08-23T06:52:42.701Z,97.90
2017-08-23T06:55:10.186Z,97.80
2017-08-23T06:57:37.677Z,98.00
2017-08-23T07:00:05.183Z,97.80
2017-08-23T07:02:32.664Z,98.20
2017-08-23T07:05:00.156Z,97.80
2017-08-23T07:07:28.594Z,98.00
2017-08-23T07:09:56.071Z,98.20
2017-08-23T07:12:24.321Z,97.60
2017-08-23T07:14:54.969Z,97.60
2017-08-23T07:17:22.498Z,98.20
2017-08-23T07:19:50.734Z,97.60
2017-08-23T07:22:18.225Z,97.60
2017-08-23T07:24:45.738Z,97.90
2017-08-23T07:27:13.264Z,97.40
2017-08-23T07:29:40.746Z,97.40
2017-08-23T07:32:09.014Z,95.60
2017-08-23T07:34:36.486Z,95.60
2017-08-23T07:37:04.754Z,95.50
2017-08-23T07:39:32.349Z,95.50
2017-08-23T07:41:59.825Z,95.00
2017-08-23T07:44:27.305Z,94.30
2017-08-23T07:46:54.786Z,94.40
2017-08-23T07:49:22.285Z,94.70
2017-08-23T07:51:49.776Z,94.60
2017-08-23T07:54:17.275Z,94.30
2017-08-23T07:56:45.536Z,94.50
2017-08-23T07:59:13.786Z,94.10
2017-08-23T08:01:41.254Z,94.00
2017-08-23T08:04:08.746Z,94.80
2017-08-23T08:06:36.217Z,94.40
2017-08-23T08:09:03.709Z,94.30
2017-08-23T08:11:31.204Z,94.70
2017-08-23T08:13:58.703Z,94.60
2017-08-23T08:16:26.201Z,95.00
2017-08-23T08:18:54.564Z,95.30
2017-08-23T08:21:28.621Z,94.80
2017-08-23T08:23:56.150Z,94.80
2017-08-23T08:26:23.625Z,94.80
2017-08-23T08:28:51.888Z,94.70
2017-08-23T08:31:19.379Z,94.70
2017-08-23T08:33:46.867Z,94.30
2017-08-23T08:36:14.343Z,94.30
2017-08-23T08:38:41.847Z,94.50
2017-08-23T08:41:09.327Z,94.30
2017-08-23T08:43:37.673Z,94.60
2017-08-23T08:46:05.377Z,94.40
2017-08-23T08:48:32.856Z,94.10
2017-08-23T08:51:00.361Z,93.90
2017-08-23T08:53:28.595Z,94.40
2017-08-23T08:55:56.085Z,94.40
2017-08-23T08:58:23.555Z,94.20
2017-08-23T09:00:51.057Z,93.60
2017-08-23T09:03:18.544Z,93.90
2017-08-23T09:05:46.053Z,93.40
2017-08-23T09:08:13.537Z,93.80
2017-08-23T09:10:41.026Z,93.40
2017-08-23T09:13:08.497Z,93.10
2017-08-23T09:15:35.994Z,92.80
2017-08-23T09:18:03.482Z,93.20
2017-08-23T09:20:31.820Z,93.20
2017-08-23T09:22:59.296Z,92.90
2017-08-23T09:25:26.785Z,92.30
2017-08-23T09:27:54.266Z,92.50
2017-08-23T09:30:21.756Z,92.60
2017-08-23T09:32:49.246Z,92.80
2017-08-23T09:35:17.155Z,92.40
2017-08-23T09:37:48.460Z,92.10
2017-08-23T09:40:15.923Z,92.20
2017-08-23T09:42:43.417Z,92.60
2017-08-23T09:45:10.899Z,91.60
2017-08-23T09:47:38.390Z,92.30
2017-08-23T09:50:05.874Z,91.50
2017-08-23T09:52:34.127Z,91.30
2017-08-23T09:55:01.610Z,91.20
2017-08-23T09:57:29.090Z,91.60
2017-08-23T09:59:56.577Z,91.10
2017-08-23T10:02:29.871Z,91.30
2017-08-23T10:04:57.370Z,91.20
2017-08-23T10:07:24.859Z,91.10
2017-08-23T10:09:52.352Z,90.50
2017-08-23T10:12:19.846Z,90.70
2017-08-23T10:14:47.405Z,91.00
2017-08-23T10:17:15.650Z,91.50
2017-08-23T10:19:43.145Z,91.20
2017-08-23T10:22:10.626Z,91.20
2017-08-23T10:24:38.115Z,90.80
2017-08-23T10:27:05.605Z,91.20
2017-08-23T10:29:33.109Z,90.90
2017-08-23T10:32:00.591Z,90.70
2017-08-23T10:34:28.082Z,91.40
2017-08-23T10:36:55.658Z,90.60
2017-08-23T10:39:23.142Z,90.10
2017-08-23T10:41:50.633Z,90.40
2017-08-23T10:44:18.133Z,90.40
2017-08-23T10:46:46.882Z,89.50
2017-08-23T10:49:14.391Z,89.40
2017-08-23T10:51:41.869Z,89.00
2017-08-23T10:54:09.375Z,90.00
2017-08-23T10:56:36.843Z,89.70
2017-08-23T10:59:04.378Z,89.60
2017-08-23T11:01:31.857Z,90.00
2017-08-23T11:03:59.336Z,89.40
2017-08-23T11:06:26.817Z,89.70
2017-08-23T11:08:55.195Z,87.20
2017-08-23T11:11:22.673Z,88.00
2017-08-23T11:13:50.170Z,86.90
2017-08-23T11:16:18.425Z,87.50
2017-08-23T11:18:45.936Z,87.50
2017-08-23T11:21:13.431Z,88.60
2017-08-23T11:23:40.903Z,88.40
2017-08-23T11:26:08.424Z,87.40
2017-08-23T11:28:35.931Z,87.20
2017-08-23T11:31:05.121Z,85.80
2017-08-23T11:33:32.585Z,85.70
2017-08-23T11:36:00.866Z,85.00
2017-08-23T11:38:28.346Z,85.00
2017-08-23T11:40:55.855Z,84.00
2017-08-23T11:43:23.330Z,84.20
2017-08-23T11:45:50.821Z,85.10
2017-08-23T11:48:18.310Z,84.40
2017-08-23T11:50:45.789Z,85.00
2017-08-23T11:53:14.951Z,84.20
2017-08-23T11:55:42.455Z,84.20
2017-08-23T11:58:09.922Z,83.80
2017-08-23T12:00:37.402Z,83.50
2017-08-23T12:03:04.886Z,82.10
2017-08-23T12:05:32.406Z,82.10
2017-08-23T12:07:59.882Z,82.40
2017-08-23T12:10:27.361Z,81.90
2017-08-23T12:12:54.863Z,79.70
2017-08-23T12:15:23.947Z,79.10
2017-08-23T12:17:51.458Z,78.70
2017-08-23T12:20:18.948Z,78.30
2017-08-23T12:22:46.436Z,79.70
2017-08-23T12:25:13.910Z,75.70
2017-08-23T12:27:42.169Z,73.90
2017-08-23T12:30:09.649Z,73.90
2017-08-23T12:32:37.134Z,75.90
2017-08-23T12:35:05.529Z,75.90
2017-08-23T12:37:33.017Z,76.40
2017-08-23T12:40:00.507Z,77.70
2017-08-23T12:42:28.011Z,78.10
2017-08-23T12:44:55.489Z,77.00
2017-08-23T12:47:22.978Z,77.30
2017-08-23T12:49:50.514Z,76.60
2017-08-23T12:52:17.993Z,77.30
2017-08-23T12:54:45.469Z,77.40
2017-08-23T12:57:12.998Z,77.10
2017-08-23T12:59:40.490Z,76.60
2017-08-23T13:02:07.963Z,76.10
2017-08-23T13:04:35.445Z,76.60
2017-08-23T13:07:02.925Z,76.80
2017-08-23T13:09:30.417Z,77.70
2017-08-23T13:11:57.942Z,76.50
2017-08-23T13:14:25.437Z,76.40
2017-08-23T13:16:53.677Z,77.00
2017-08-23T13:19:21.171Z,76.90
2017-08-23T13:21:48.646Z,76.70
2017-08-23T13:24:16.146Z,77.10
2017-08-23T13:26:43.650Z,75.20
2017-08-23T13:29:11.132Z,76.30
2017-08-23T13:31:38.646Z,76.80
2017-08-23T13:34:06.145Z,76.70
2017-08-23T13:36:33.631Z,76.30
2017-08-23T13:39:01.114Z,75.90
2017-08-23T13:41:28.594Z,76.00
2017-08-23T13:43:56.088Z,75.20
2017-08-23T13:46:23.599Z,75.20
2017-08-23T13:48:51.094Z,75.40
2017-08-23T13:51:18.583Z,76.20
2017-08-23T13:53:46.086Z,77.00
2017-08-23T13:56:13.562Z,75.80
2017-08-23T13:58:41.031Z,75.10
2017-08-23T14:01:08.518Z,75.10
2017-08-23T14:03:35.988Z,74.80
2017-08-23T14:11:49.579Z,75.00
2017-08-23T14:14:17.077Z,75.40
2017-08-23T14:16:44.561Z,76.10
2017-08-23T14:19:12.050Z,75.00
2017-08-23T14:21:39.547Z,75.20
2017-08-23T14:24:07.034Z,75.40
2017-08-23T14:26:34.542Z,75.90
2017-08-23T14:29:02.027Z,76.30
2017-08-23T14:31:29.523Z,76.10
2017-08-23T14:33:57.004Z,76.80
2017-08-23T14:36:24.496Z,76.70
2017-08-23T14:38:51.974Z,76.80
2017-08-23T14:41:19.462Z,78.00
2017-08-23T14:43:46.952Z,77.50
2017-08-23T14:46:14.436Z,77.60
2017-08-23T14:48:41.906Z,77.70
2017-08-23T14:51:09.415Z,77.40
2017-08-23T14:53:36.890Z,76.20
2017-08-23T14:56:05.438Z,76.00
2017-08-23T14:58:32.933Z,76.40
2017-08-23T15:01:00.428Z,76.20
2017-08-23T15:03:27.905Z,76.40
2017-08-23T15:05:55.406Z,77.50
2017-08-23T15:08:22.882Z,76.30
2017-08-23T15:10:50.386Z,76.10
2017-08-23T15:13:17.881Z,76.70
2017-08-23T15:15:46.129Z,76.10
2017-08-23T15:18:13.614Z,76.10
2017-08-23T15:20:41.102Z,76.20
2017-08-23T15:23:08.590Z,76.10
2017-08-23T15:25:38.404Z,76.10
2017-08-23T15:28:05.896Z,76.10
2017-08-23T15:30:33.379Z,76.80
2017-08-23T15:33:00.869Z,75.10
2017-08-23T15:35:28.353Z,76.80
2017-08-23T15:37:55.850Z,76.20
2017-08-23T15:40:23.335Z,74.90
2017-08-23T15:42:51.590Z,75.90
2017-08-23T15:45:19.061Z,75.80
2017-08-23T15:47:47.329Z,74.50
2017-08-23T15:50:14.805Z,74.50
2017-08-23T15:52:43.077Z,75.20
2017-08-23T15:55:10.556Z,75.10
2017-08-23T15:57:38.029Z,76.30
2017-08-23T16:00:05.645Z,75.80
2017-08-23T16:02:33.121Z,75.90
2017-08-23T16:05:00.647Z,76.20
2017-08-23T16:07:28.123Z,75.40
2017-08-23T16:09:55.611Z,74.50
2017-08-23T16:12:23.083Z,75.70
2017-08-23T16:14:50.571Z,75.00
2017-08-23T16:17:18.051Z,74.10
2017-08-23T16:19:46.310Z,73.60
2017-08-23T16:22:13.825Z,73.50
2017-08-23T16:24:42.089Z,72.60
2017-08-23T16:27:09.563Z,72.60
2017-08-23T16:29:37.974Z,72.80
2017-08-23T16:32:05.455Z,71.40
2017-08-23T16:34:32.965Z,72.10
2017-08-23T16:37:00.457Z,70.00
2017-08-23T16:39:27.978Z,69.80
2017-08-23T16:41:55.479Z,69.40
2017-08-23T16:44:22.961Z,68.60
2017-08-23T16:46:51.237Z,66.60
2017-08-23T16:49:18.713Z,66.50
2017-08-23T16:51:46.215Z,65.10
2017-08-23T16:54:13.688Z,63.90
2017-08-23T16:56:41.189Z,63.60
2017-08-23T16:59:08.672Z,63.00
2017-08-23T17:01:36.165Z,62.90
2017-08-23T17:04:03.651Z,62.00
2017-08-23T17:06:31.162Z,60.50
2017-08-23T17:08:58.651Z,60.90
2017-08-23T17:11:26.975Z,60.10
2017-08-23T17:13:54.469Z,60.00
2017-08-23T17:16:21.988Z,60.20
2017-08-23T17:18:49.468Z,62.10
2017-08-23T17:21:16.985Z,64.80
2017-08-23T17:23:44.471Z,67.10
2017-08-23T17:26:11.973Z,68.70
2017-08-23T17:28:39.451Z,70.70
2017-08-23T17:31:06.950Z,71.70
2017-08-23T17:33:34.434Z,73.00
2017-08-23T17:36:01.902Z,74.00
2017-08-23T17:38:29.403Z,76.00
2017-08-23T17:40:56.890Z,76.40
2017-08-23T17:43:24.387Z,76.80
2017-08-23T17:45:51.880Z,78.80
2017-08-23T17:48:19.405Z,79.00
2017-08-23T17:50:46.887Z,79.30
2017-08-23T17:53:14.384Z,82.70
2017-08-23T17:55:41.882Z,84.50
2017-08-23T17:58:09.378Z,85.60
2017-08-23T18:00:36.887Z,85.90
2017-08-23T18:03:05.176Z,87.80
2017-08-23T18:08:26.106Z,88.20
2017-08-23T18:10:55.508Z,89.80
2017-08-23T18:13:22.999Z,89.80
2017-08-23T18:15:50.490Z,90.00
2017-08-23T18:18:17.987Z,90.00
2017-08-23T18:20:45.494Z,90.20
2017-08-23T18:23:13.002Z,90.40
2017-08-23T18:25:40.490Z,90.60
2017-08-23T18:28:07.994Z,90.70
2017-08-23T18:30:35.473Z,90.90
2017-08-23T18:33:03.156Z,91.00
2017-08-23T18:35:30.620Z,91.10
2017-08-23T18:37:58.127Z,91.30
2017-08-23T18:40:25.602Z,91.30
2017-08-23T18:42:53.088Z,91.20
2017-08-23T18:45:20.582Z,91.40
2017-08-23T18:47:48.090Z,91.50
2017-08-23T18:50:15.582Z,91.70
2017-08-23T18:52:43.075Z,91.80
2017-08-23T18:55:10.567Z,92.00
2017-08-23T18:57:38.054Z,92.80
2017-08-23T19:00:05.553Z,92.70
2017-08-23T19:02:33.036Z,93.20
2017-08-23T19:05:00.524Z,93.40
2017-08-23T19:07:28.132Z,93.50
2017-08-23T19:09:55.607Z,93.60
2017-08-23T19:12:23.106Z,93.80
2017-08-23T19:14:50.600Z,94.00
2017-08-23T19:17:18.083Z,94.00
2017-08-23T19:19:45.589Z,94.00
2017-08-23T19:22:13.110Z,94.40
2017-08-23T19:24:40.626Z,94.40
2017-08-23T19:27:08.096Z,94.30
2017-08-23T19:29:35.593Z,94.50
2017-08-23T19:32:03.082Z,94.50
2017-08-23T19:34:30.578Z,94.00
2017-08-23T19:36:58.053Z,94.70
2017-08-23T19:39:25.540Z,95.00
2017-08-23T19:41:53.035Z,94.90
2017-08-23T19:44:20.522Z,95.10
2017-08-23T19:46:48.030Z,95.20
2017-08-23T19:49:15.514Z,94.90
2017-08-23T19:51:43.011Z,94.70
2017-08-23T19:54:10.496Z,94.80
2017-08-23T19:56:38.025Z,94.90
2017-08-23T19:59:05.514Z,95.00
2017-08-23T20:01:32.997Z,95.10
2017-08-23T20:04:00.565Z,95.10
2017-08-23T20:06:29.031Z,95.40
2017-08-23T20:08:56.497Z,95.40
2017-08-23T20:11:24.004Z,95.50
2017-08-23T20:13:51.528Z,95.90
2017-08-23T20:16:19.793Z,95.90
2017-08-23T20:18:47.295Z,95.80
2017-08-23T20:21:14.789Z,95.70
2017-08-23T20:23:42.290Z,96.20
2017-08-23T20:26:10.087Z,96.30
2017-08-23T20:28:39.031Z,96.20
2017-08-23T20:31:06.520Z,96.10
2017-08-23T20:33:34.009Z,96.20
2017-08-23T20:36:01.498Z,96.40
2017-08-23T20:38:28.976Z,96.40
2017-08-23T20:40:56.468Z,96.40
2017-08-23T20:43:23.985Z,96.60
2017-08-23T20:45:51.466Z,96.90
2017-08-23T20:48:19.013Z,96.90
2017-08-23T20:50:46.490Z,96.70
2017-08-23T20:53:13.999Z,96.80
2017-08-23T20:55:41.477Z,97.00
2017-08-23T20:58:09.735Z,97.40
2017-08-23T21:00:37.223Z,97.40
2017-08-23T21:03:04.714Z,97.30
2017-08-23T21:05:32.592Z,97.20
2017-08-23T21:08:00.071Z,97.30
2017-08-23T21:10:27.571Z,97.40
2017-08-23T21:12:55.058Z,97.60
2017-08-23T21:15:22.561Z,97.70
2017-08-23T21:17:50.051Z,97.80
2017-08-23T21:20:17.546Z,98.00
2017-08-23T21:22:45.022Z,97.90
2017-08-23T21:25:12.506Z,97.90
2017-08-23T21:27:39.992Z,98.10
2017-08-23T21:30:07.491Z,98.30
2017-08-23T21:32:34.963Z,98.30
2017-08-23T21:35:02.462Z,98.50
2017-08-23T21:37:29.942Z,98.80
2017-08-23T21:39:58.174Z,98.50
2017-08-23T21:42:25.655Z,98.70
2017-08-23T21:44:53.138Z,98.90
2017-08-23T21:47:20.615Z,99.00
2017-08-23T21:49:48.113Z,98.90
2017-08-23T21:52:15.595Z,98.90
2017-08-23T21:54:43.094Z,99.10
2017-08-23T21:57:10.573Z,99.20
2017-08-23T21:59:38.061Z,99.20
2017-08-23T22:02:05.639Z,99.10
2017-08-23T22:04:33.148Z,98.90
2017-08-23T22:07:00.626Z,99.00
2017-08-23T22:09:28.107Z,99.00
2017-08-23T22:11:55.797Z,99.10
2017-08-23T22:14:23.275Z,99.20
2017-08-23T22:16:51.538Z,99.50
2017-08-23T22:19:19.005Z,99.50
2017-08-23T22:21:47.274Z,99.80
2017-08-23T22:24:14.762Z,99.70
2017-08-23T22:26:42.243Z,99.80
2017-08-23T22:29:09.714Z,99.90
2017-08-23T22:31:37.225Z,99.90
2017-08-23T22:34:04.707Z,99.90
2017-08-23T22:36:32.175Z,99.90
2017-08-23T22:38:59.652Z,99.90
2017-08-23T22:41:27.146Z,99.90
2017-08-23T22:43:55.389Z,99.90
2017-08-23T22:46:22.896Z,99.90
2017-08-23T22:48:50.375Z,99.90
2017-08-23T22:51:17.859Z,99.90
2017-08-23T22:53:45.342Z,99.90
2017-08-23T22:56:12.849Z,99.90
2017-08-23T22:58:40.331Z,99.90
2017-08-23T23:01:07.832Z,99.90
2017-08-23T23:03:35.326Z,99.90
2017-08-23T23:06:02.807Z,99.90
2017-08-23T23:08:30.299Z,99.90
2017-08-23T23:10:57.769Z,99.90
2017-08-23T23:13:26.031Z,99.90
2017-08-23T23:15:53.516Z,99.90
2017-08-23T23:18:21.016Z,99.90
2017-08-23T23:20:48.493Z,99.90
2017-08-23T23:23:16.003Z,99.90
2017-08-23T23:25:43.490Z,99.90
2017-08-23T23:28:10.994Z,99.90
2017-08-23T23:30:38.471Z,99.90
2017-08-23T23:33:05.966Z,99.90
2017-08-23T23:35:33.457Z,99.90
2017-08-23T23:38:00.957Z,99.90
2017-08-23T23:40:28.434Z,99.90
2017-08-23T23:42:55.938Z,99.90
2017-08-23T23:45:23.419Z,99.90
2017-08-23T23:47:50.891Z,99.90
2017-08-23T23:50:18.394Z,99.90
2017-08-23T23:52:45.867Z,99.90
2017-08-23T23:55:14.132Z,99.90
2017-08-23T23:57:41.605Z,99.90
